sensor_id;sensor_type;location;lat;lon;timestamp;P1;durP1;ratioP1;P2;durP2;ratioP2
17173;SDS011;8702;48.130;-1.696;2022-10-17T00:02:09;7.10;;;4.15;;
17173;SDS011;8702;48.130;-1.696;2022-10-17T00:04:35;8.93;;;4.53;;
17173;SDS011;8702;48.130;-1.696;2022-10-17T00:07:02;8.55;;;4.00;;
17173;SDS011;8702;48.130;-1.696;2022-10-17T00:09:29;7.72;;;4.45;;
17173;SDS011;8702;48.130;-1.696;2022-10-17T00:11:56;10.32;;;4.50;;
17173;SDS011;8702;48.130;-1.696;2022-10-17T00:14:23;9.38;;;4.20;;
17173;SDS011;8702;48.130;-1.696;2022-10-17T00:16:50;8.73;;;4.30;;
17173;SDS011;8702;48.130;-1.696;2022-10-17T00:19:19;11.00;;;4.70;;
17173;SDS011;8702;48.130;-1.696;2022-10-17T00:21:47;8.25;;;4.20;;
17173;SDS011;8702;48.130;-1.696;2022-10-17T00:24:14;8.90;;;4.88;;
17173;SDS011;8702;48.130;-1.696;2022-10-17T00:26:41;9.05;;;4.50;;
17173;SDS011;8702;48.130;-1.696;2022-10-17T00:29:08;9.68;;;4.78;;
17173;SDS011;8702;48.130;-1.696;2022-10-17T00:31:35;8.75;;;4.63;;
17173;SDS011;8702;48.130;-1.696;2022-10-17T00:34:02;9.55;;;4.47;;
17173;SDS011;8702;48.130;-1.696;2022-10-17T00:36:31;8.90;;;4.72;;
17173;SDS011;8702;48.130;-1.696;2022-10-17T00:38:59;9.05;;;4.82;;
17173;SDS011;8702;48.130;-1.696;2022-10-17T00:41:27;9.68;;;4.88;;
17173;SDS011;8702;48.130;-1.696;2022-10-17T00:43:56;9.70;;;4.13;;
17173;SDS011;8702;48.130;-1.696;2022-10-17T00:46:25;9.30;;;4.45;;
17173;SDS011;8702;48.130;-1.696;2022-10-17T00:48:53;11.52;;;4.70;;
17173;SDS011;8702;48.130;-1.696;2022-10-17T00:51:24;11.95;;;4.30;;
17173;SDS011;8702;48.130;-1.696;2022-10-17T00:53:57;9.98;;;4.65;;
17173;SDS011;8702;48.130;-1.696;2022-10-17T00:56:25;6.90;;;4.45;;
17173;SDS011;8702;48.130;-1.696;2022-10-17T00:58:52;10.18;;;4.68;;
17173;SDS011;8702;48.130;-1.696;2022-10-17T01:01:20;7.63;;;4.63;;
17173;SDS011;8702;48.130;-1.696;2022-10-17T01:03:47;10.48;;;4.68;;
17173;SDS011;8702;48.130;-1.696;2022-10-17T01:06:14;9.98;;;4.35;;
17173;SDS011;8702;48.130;-1.696;2022-10-17T01:08:41;9.18;;;4.45;;
17173;SDS011;8702;48.130;-1.696;2022-10-17T01:11:12;11.00;;;4.80;;
17173;SDS011;8702;48.130;-1.696;2022-10-17T01:13:55;7.85;;;4.40;;
17173;SDS011;8702;48.130;-1.696;2022-10-17T01:16:28;9.98;;;4.43;;
17173;SDS011;8702;48.130;-1.696;2022-10-17T01:19:03;10.13;;;4.60;;
17173;SDS011;8702;48.130;-1.696;2022-10-17T01:21:48;8.47;;;4.43;;
17173;SDS011;8702;48.130;-1.696;2022-10-17T01:30:28;8.23;;;4.43;;
17173;SDS011;8702;48.130;-1.696;2022-10-17T01:33:21;7.65;;;4.63;;
17173;SDS011;8702;48.130;-1.696;2022-10-17T01:35:55;8.13;;;4.47;;
17173;SDS011;8702;48.130;-1.696;2022-10-17T01:38:26;11.40;;;4.55;;
17173;SDS011;8702;48.130;-1.696;2022-10-17T01:40:59;7.40;;;4.45;;
17173;SDS011;8702;48.130;-1.696;2022-10-17T01:43:32;10.13;;;4.65;;
17173;SDS011;8702;48.130;-1.696;2022-10-17T01:46:05;8.20;;;4.40;;
17173;SDS011;8702;48.130;-1.696;2022-10-17T01:48:39;10.77;;;4.40;;
17173;SDS011;8702;48.130;-1.696;2022-10-17T01:51:11;9.18;;;4.30;;
17173;SDS011;8702;48.130;-1.696;2022-10-17T01:53:44;10.40;;;4.50;;
17173;SDS011;8702;48.130;-1.696;2022-10-17T01:56:17;9.43;;;4.47;;
17173;SDS011;8702;48.130;-1.696;2022-10-17T01:58:48;8.80;;;4.40;;
17173;SDS011;8702;48.130;-1.696;2022-10-17T02:01:18;10.15;;;5.00;;
17173;SDS011;8702;48.130;-1.696;2022-10-17T02:03:48;7.13;;;4.40;;
17173;SDS011;8702;48.130;-1.696;2022-10-17T02:06:17;8.85;;;4.13;;
17173;SDS011;8702;48.130;-1.696;2022-10-17T02:08:45;9.93;;;4.50;;
17173;SDS011;8702;48.130;-1.696;2022-10-17T02:11:13;9.75;;;4.63;;
17173;SDS011;8702;48.130;-1.696;2022-10-17T02:13:57;7.18;;;4.00;;
17173;SDS011;8702;48.130;-1.696;2022-10-17T02:16:41;10.75;;;4.30;;
17173;SDS011;8702;48.130;-1.696;2022-10-17T02:19:20;11.38;;;4.38;;
17173;SDS011;8702;48.130;-1.696;2022-10-17T02:22:11;11.75;;;4.72;;
17173;SDS011;8702;48.130;-1.696;2022-10-17T02:24:46;8.57;;;3.80;;
17173;SDS011;8702;48.130;-1.696;2022-10-17T02:27:20;8.53;;;4.43;;
17173;SDS011;8702;48.130;-1.696;2022-10-17T02:29:56;7.70;;;3.90;;
17173;SDS011;8702;48.130;-1.696;2022-10-17T02:32:27;10.43;;;4.40;;
17173;SDS011;8702;48.130;-1.696;2022-10-17T02:35:00;8.27;;;3.72;;
17173;SDS011;8702;48.130;-1.696;2022-10-17T02:37:31;7.93;;;3.88;;
17173;SDS011;8702;48.130;-1.696;2022-10-17T02:39:59;8.52;;;3.90;;
17173;SDS011;8702;48.130;-1.696;2022-10-17T02:42:27;10.50;;;4.10;;
17173;SDS011;8702;48.130;-1.696;2022-10-17T02:44:56;9.90;;;4.40;;
17173;SDS011;8702;48.130;-1.696;2022-10-17T02:47:26;7.93;;;4.05;;
17173;SDS011;8702;48.130;-1.696;2022-10-17T02:49:57;10.05;;;4.00;;
17173;SDS011;8702;48.130;-1.696;2022-10-17T02:52:27;8.68;;;4.10;;
17173;SDS011;8702;48.130;-1.696;2022-10-17T02:55:02;14.00;;;3.97;;
17173;SDS011;8702;48.130;-1.696;2022-10-17T02:57:35;10.50;;;3.92;;
17173;SDS011;8702;48.130;-1.696;2022-10-17T03:00:05;10.00;;;4.10;;
17173;SDS011;8702;48.130;-1.696;2022-10-17T03:02:38;7.88;;;4.18;;
17173;SDS011;8702;48.130;-1.696;2022-10-17T03:05:06;9.00;;;4.18;;
17173;SDS011;8702;48.130;-1.696;2022-10-17T03:07:35;8.38;;;4.35;;
17173;SDS011;8702;48.130;-1.696;2022-10-17T03:10:03;10.52;;;4.38;;
17173;SDS011;8702;48.130;-1.696;2022-10-17T03:12:31;10.27;;;4.32;;
17173;SDS011;8702;48.130;-1.696;2022-10-17T03:14:58;7.80;;;4.40;;
17173;SDS011;8702;48.130;-1.696;2022-10-17T03:17:25;10.77;;;4.20;;
17173;SDS011;8702;48.130;-1.696;2022-10-17T03:19:52;10.88;;;4.50;;
17173;SDS011;8702;48.130;-1.696;2022-10-17T03:22:18;9.82;;;4.75;;
17173;SDS011;8702;48.130;-1.696;2022-10-17T03:24:47;11.75;;;4.47;;
17173;SDS011;8702;48.130;-1.696;2022-10-17T03:27:14;7.60;;;4.45;;
17173;SDS011;8702;48.130;-1.696;2022-10-17T03:29:41;11.43;;;4.33;;
17173;SDS011;8702;48.130;-1.696;2022-10-17T03:32:08;7.95;;;4.55;;
17173;SDS011;8702;48.130;-1.696;2022-10-17T03:34:35;9.77;;;4.32;;
17173;SDS011;8702;48.130;-1.696;2022-10-17T03:37:02;10.73;;;4.32;;
17173;SDS011;8702;48.130;-1.696;2022-10-17T03:39:29;10.40;;;4.60;;
17173;SDS011;8702;48.130;-1.696;2022-10-17T03:41:57;10.50;;;4.40;;
17173;SDS011;8702;48.130;-1.696;2022-10-17T03:44:24;12.93;;;4.65;;
17173;SDS011;8702;48.130;-1.696;2022-10-17T03:46:51;10.37;;;4.43;;
17173;SDS011;8702;48.130;-1.696;2022-10-17T03:49:18;10.43;;;4.20;;
17173;SDS011;8702;48.130;-1.696;2022-10-17T03:51:45;9.03;;;4.23;;
17173;SDS011;8702;48.130;-1.696;2022-10-17T03:54:12;11.73;;;4.10;;
17173;SDS011;8702;48.130;-1.696;2022-10-17T03:56:39;9.85;;;3.90;;
17173;SDS011;8702;48.130;-1.696;2022-10-17T03:59:09;8.73;;;4.00;;
17173;SDS011;8702;48.130;-1.696;2022-10-17T04:01:39;12.10;;;4.22;;
17173;SDS011;8702;48.130;-1.696;2022-10-17T04:04:06;8.73;;;4.20;;
17173;SDS011;8702;48.130;-1.696;2022-10-17T04:06:33;9.90;;;3.70;;
17173;SDS011;8702;48.130;-1.696;2022-10-17T04:09:00;9.48;;;3.83;;
17173;SDS011;8702;48.130;-1.696;2022-10-17T04:11:28;11.10;;;3.90;;
17173;SDS011;8702;48.130;-1.696;2022-10-17T04:13:55;11.85;;;3.90;;
17173;SDS011;8702;48.130;-1.696;2022-10-17T04:16:25;10.77;;;3.70;;
17173;SDS011;8702;48.130;-1.696;2022-10-17T04:18:52;10.23;;;4.10;;
17173;SDS011;8702;48.130;-1.696;2022-10-17T04:21:20;7.23;;;3.57;;
17173;SDS011;8702;48.130;-1.696;2022-10-17T04:23:51;7.85;;;3.72;;
17173;SDS011;8702;48.130;-1.696;2022-10-17T04:26:19;11.82;;;3.83;;
17173;SDS011;8702;48.130;-1.696;2022-10-17T04:28:46;9.20;;;3.58;;
17173;SDS011;8702;48.130;-1.696;2022-10-17T04:31:13;9.60;;;3.33;;
17173;SDS011;8702;48.130;-1.696;2022-10-17T04:33:41;8.43;;;3.65;;
17173;SDS011;8702;48.130;-1.696;2022-10-17T04:36:09;10.70;;;3.80;;
17173;SDS011;8702;48.130;-1.696;2022-10-17T04:38:37;9.85;;;3.70;;
17173;SDS011;8702;48.130;-1.696;2022-10-17T04:41:05;8.23;;;3.50;;
17173;SDS011;8702;48.130;-1.696;2022-10-17T04:43:35;9.43;;;3.83;;
17173;SDS011;8702;48.130;-1.696;2022-10-17T04:46:04;8.35;;;3.42;;
17173;SDS011;8702;48.130;-1.696;2022-10-17T04:48:34;7.50;;;3.30;;
17173;SDS011;8702;48.130;-1.696;2022-10-17T04:51:03;7.97;;;3.23;;
17173;SDS011;8702;48.130;-1.696;2022-10-17T04:53:32;8.00;;;3.05;;
17173;SDS011;8702;48.130;-1.696;2022-10-17T04:56:06;7.87;;;2.87;;
17173;SDS011;8702;48.130;-1.696;2022-10-17T04:58:34;6.90;;;2.83;;
17173;SDS011;8702;48.130;-1.696;2022-10-17T05:01:05;7.28;;;2.72;;
17173;SDS011;8702;48.130;-1.696;2022-10-17T05:03:32;7.43;;;2.60;;
17173;SDS011;8702;48.130;-1.696;2022-10-17T05:06:04;8.43;;;2.65;;
17173;SDS011;8702;48.130;-1.696;2022-10-17T05:08:31;6.00;;;2.40;;
17173;SDS011;8702;48.130;-1.696;2022-10-17T05:10:58;5.07;;;2.35;;
17173;SDS011;8702;48.130;-1.696;2022-10-17T05:13:25;7.22;;;2.53;;
17173;SDS011;8702;48.130;-1.696;2022-10-17T05:15:52;6.43;;;2.78;;
17173;SDS011;8702;48.130;-1.696;2022-10-17T05:18:23;8.82;;;2.70;;
17173;SDS011;8702;48.130;-1.696;2022-10-17T05:20:50;6.33;;;2.47;;
17173;SDS011;8702;48.130;-1.696;2022-10-17T05:23:18;6.80;;;2.80;;
17173;SDS011;8702;48.130;-1.696;2022-10-17T05:25:45;6.70;;;2.50;;
17173;SDS011;8702;48.130;-1.696;2022-10-17T05:28:12;5.95;;;2.55;;
17173;SDS011;8702;48.130;-1.696;2022-10-17T05:30:39;4.88;;;2.67;;
17173;SDS011;8702;48.130;-1.696;2022-10-17T05:33:06;7.22;;;2.63;;
17173;SDS011;8702;48.130;-1.696;2022-10-17T05:35:33;5.25;;;2.40;;
17173;SDS011;8702;48.130;-1.696;2022-10-17T05:38:00;8.20;;;2.40;;
17173;SDS011;8702;48.130;-1.696;2022-10-17T05:40:28;6.97;;;2.50;;
17173;SDS011;8702;48.130;-1.696;2022-10-17T05:42:55;6.25;;;2.50;;
17173;SDS011;8702;48.130;-1.696;2022-10-17T05:45:22;8.27;;;2.50;;
17173;SDS011;8702;48.130;-1.696;2022-10-17T05:47:49;8.50;;;2.22;;
17173;SDS011;8702;48.130;-1.696;2022-10-17T05:50:16;6.35;;;2.58;;
17173;SDS011;8702;48.130;-1.696;2022-10-17T05:52:45;6.25;;;2.55;;
17173;SDS011;8702;48.130;-1.696;2022-10-17T05:55:12;7.72;;;3.10;;
17173;SDS011;8702;48.130;-1.696;2022-10-17T05:57:40;6.78;;;2.72;;
17173;SDS011;8702;48.130;-1.696;2022-10-17T06:00:08;5.87;;;2.40;;
17173;SDS011;8702;48.130;-1.696;2022-10-17T06:02:36;7.28;;;2.58;;
17173;SDS011;8702;48.130;-1.696;2022-10-17T06:05:03;8.32;;;2.13;;
17173;SDS011;8702;48.130;-1.696;2022-10-17T06:07:30;7.07;;;2.45;;
17173;SDS011;8702;48.130;-1.696;2022-10-17T06:09:57;5.47;;;2.42;;
17173;SDS011;8702;48.130;-1.696;2022-10-17T06:12:24;8.02;;;2.67;;
17173;SDS011;8702;48.130;-1.696;2022-10-17T06:14:52;7.43;;;2.58;;
17173;SDS011;8702;48.130;-1.696;2022-10-17T06:17:19;7.63;;;2.70;;
17173;SDS011;8702;48.130;-1.696;2022-10-17T06:19:46;4.90;;;2.15;;
17173;SDS011;8702;48.130;-1.696;2022-10-17T06:22:13;7.80;;;2.67;;
17173;SDS011;8702;48.130;-1.696;2022-10-17T06:24:40;5.47;;;2.50;;
17173;SDS011;8702;48.130;-1.696;2022-10-17T06:27:07;7.10;;;2.70;;
17173;SDS011;8702;48.130;-1.696;2022-10-17T06:29:34;7.20;;;2.60;;
17173;SDS011;8702;48.130;-1.696;2022-10-17T06:32:03;6.87;;;2.63;;
17173;SDS011;8702;48.130;-1.696;2022-10-17T06:34:30;5.68;;;2.63;;
17173;SDS011;8702;48.130;-1.696;2022-10-17T06:36:57;8.15;;;2.90;;
17173;SDS011;8702;48.130;-1.696;2022-10-17T06:39:24;9.80;;;2.40;;
17173;SDS011;8702;48.130;-1.696;2022-10-17T06:41:57;6.15;;;2.30;;
17173;SDS011;8702;48.130;-1.696;2022-10-17T06:44:24;7.47;;;2.80;;
17173;SDS011;8702;48.130;-1.696;2022-10-17T06:46:54;8.77;;;2.70;;
17173;SDS011;8702;48.130;-1.696;2022-10-17T06:49:23;6.18;;;2.53;;
17173;SDS011;8702;48.130;-1.696;2022-10-17T06:51:50;8.05;;;2.20;;
17173;SDS011;8702;48.130;-1.696;2022-10-17T06:54:18;7.63;;;2.53;;
17173;SDS011;8702;48.130;-1.696;2022-10-17T06:56:45;9.45;;;2.90;;
17173;SDS011;8702;48.130;-1.696;2022-10-17T06:59:12;7.50;;;2.30;;
17173;SDS011;8702;48.130;-1.696;2022-10-17T07:01:39;6.53;;;2.60;;
17173;SDS011;8702;48.130;-1.696;2022-10-17T07:04:06;6.22;;;2.60;;
17173;SDS011;8702;48.130;-1.696;2022-10-17T07:06:35;6.20;;;2.42;;
17173;SDS011;8702;48.130;-1.696;2022-10-17T07:09:03;5.47;;;2.10;;
17173;SDS011;8702;48.130;-1.696;2022-10-17T07:11:31;6.07;;;2.40;;
17173;SDS011;8702;48.130;-1.696;2022-10-17T07:13:59;6.25;;;1.90;;
17173;SDS011;8702;48.130;-1.696;2022-10-17T07:16:26;6.43;;;2.08;;
17173;SDS011;8702;48.130;-1.696;2022-10-17T07:18:53;5.82;;;1.67;;
17173;SDS011;8702;48.130;-1.696;2022-10-17T07:21:21;3.45;;;1.60;;
17173;SDS011;8702;48.130;-1.696;2022-10-17T07:23:49;6.20;;;1.70;;
17173;SDS011;8702;48.130;-1.696;2022-10-17T07:26:16;5.60;;;1.80;;
17173;SDS011;8702;48.130;-1.696;2022-10-17T07:28:44;4.82;;;1.70;;
17173;SDS011;8702;48.130;-1.696;2022-10-17T07:31:13;6.07;;;1.90;;
17173;SDS011;8702;48.130;-1.696;2022-10-17T07:33:41;5.05;;;1.83;;
17173;SDS011;8702;48.130;-1.696;2022-10-17T07:36:08;4.28;;;1.98;;
17173;SDS011;8702;48.130;-1.696;2022-10-17T07:38:36;3.92;;;1.63;;
17173;SDS011;8702;48.130;-1.696;2022-10-17T07:41:06;5.78;;;1.73;;
17173;SDS011;8702;48.130;-1.696;2022-10-17T07:43:34;4.72;;;1.67;;
17173;SDS011;8702;48.130;-1.696;2022-10-17T07:46:02;4.00;;;1.50;;
17173;SDS011;8702;48.130;-1.696;2022-10-17T07:48:30;5.20;;;1.75;;
17173;SDS011;8702;48.130;-1.696;2022-10-17T07:51:00;4.67;;;1.60;;
17173;SDS011;8702;48.130;-1.696;2022-10-17T07:53:27;4.25;;;1.70;;
17173;SDS011;8702;48.130;-1.696;2022-10-17T07:55:55;4.88;;;1.50;;
17173;SDS011;8702;48.130;-1.696;2022-10-17T07:58:23;4.57;;;1.35;;
17173;SDS011;8702;48.130;-1.696;2022-10-17T08:00:50;5.38;;;1.77;;
17173;SDS011;8702;48.130;-1.696;2022-10-17T08:03:17;5.78;;;1.85;;
17173;SDS011;8702;48.130;-1.696;2022-10-17T08:05:44;4.43;;;1.60;;
17173;SDS011;8702;48.130;-1.696;2022-10-17T08:08:11;5.35;;;1.60;;
17173;SDS011;8702;48.130;-1.696;2022-10-17T08:10:38;4.68;;;1.40;;
17173;SDS011;8702;48.130;-1.696;2022-10-17T08:13:05;5.32;;;1.83;;
17173;SDS011;8702;48.130;-1.696;2022-10-17T08:15:35;3.63;;;1.60;;
17173;SDS011;8702;48.130;-1.696;2022-10-17T08:18:03;3.95;;;1.67;;
17173;SDS011;8702;48.130;-1.696;2022-10-17T08:20:30;8.15;;;1.70;;
17173;SDS011;8702;48.130;-1.696;2022-10-17T08:22:57;4.80;;;1.65;;
17173;SDS011;8702;48.130;-1.696;2022-10-17T08:25:24;4.75;;;1.50;;
17173;SDS011;8702;48.130;-1.696;2022-10-17T08:27:51;4.60;;;1.63;;
17173;SDS011;8702;48.130;-1.696;2022-10-17T08:30:18;5.70;;;1.95;;
17173;SDS011;8702;48.130;-1.696;2022-10-17T08:32:46;4.47;;;1.50;;
17173;SDS011;8702;48.130;-1.696;2022-10-17T08:35:14;4.68;;;1.40;;
17173;SDS011;8702;48.130;-1.696;2022-10-17T08:37:41;4.53;;;1.52;;
17173;SDS011;8702;48.130;-1.696;2022-10-17T08:40:10;6.13;;;1.70;;
17173;SDS011;8702;48.130;-1.696;2022-10-17T08:42:48;6.22;;;1.70;;
17173;SDS011;8702;48.130;-1.696;2022-10-17T08:45:25;4.40;;;1.45;;
17173;SDS011;8702;48.130;-1.696;2022-10-17T08:47:58;5.15;;;1.55;;
17173;SDS011;8702;48.130;-1.696;2022-10-17T08:50:29;6.75;;;1.65;;
17173;SDS011;8702;48.130;-1.696;2022-10-17T08:53:02;3.63;;;1.38;;
17173;SDS011;8702;48.130;-1.696;2022-10-17T08:55:35;5.78;;;1.50;;
17173;SDS011;8702;48.130;-1.696;2022-10-17T08:58:08;5.85;;;1.85;;
17173;SDS011;8702;48.130;-1.696;2022-10-17T09:00:39;5.03;;;1.65;;
17173;SDS011;8702;48.130;-1.696;2022-10-17T09:03:15;5.17;;;1.50;;
17173;SDS011;8702;48.130;-1.696;2022-10-17T09:05:52;7.82;;;1.58;;
17173;SDS011;8702;48.130;-1.696;2022-10-17T09:08:32;6.65;;;1.92;;
17173;SDS011;8702;48.130;-1.696;2022-10-17T09:11:08;6.27;;;1.80;;
17173;SDS011;8702;48.130;-1.696;2022-10-17T09:13:47;6.28;;;1.70;;
17173;SDS011;8702;48.130;-1.696;2022-10-17T09:19:19;5.47;;;1.55;;
17173;SDS011;8702;48.130;-1.696;2022-10-17T09:21:51;5.88;;;1.55;;
17173;SDS011;8702;48.130;-1.696;2022-10-17T09:24:21;4.72;;;1.50;;
17173;SDS011;8702;48.130;-1.696;2022-10-17T09:26:58;4.20;;;1.45;;
17173;SDS011;8702;48.130;-1.696;2022-10-17T09:29:26;6.95;;;1.60;;
17173;SDS011;8702;48.130;-1.696;2022-10-17T09:31:55;5.28;;;1.52;;
17173;SDS011;8702;48.130;-1.696;2022-10-17T09:34:28;7.30;;;1.73;;
17173;SDS011;8702;48.130;-1.696;2022-10-17T09:36:56;6.15;;;1.52;;
17173;SDS011;8702;48.130;-1.696;2022-10-17T09:39:25;6.68;;;1.60;;
17173;SDS011;8702;48.130;-1.696;2022-10-17T09:41:56;8.82;;;1.67;;
17173;SDS011;8702;48.130;-1.696;2022-10-17T09:44:26;5.55;;;1.70;;
17173;SDS011;8702;48.130;-1.696;2022-10-17T09:49:46;5.60;;;1.40;;
17173;SDS011;8702;48.130;-1.696;2022-10-17T09:52:15;5.40;;;1.58;;
17173;SDS011;8702;48.130;-1.696;2022-10-17T09:54:44;6.10;;;1.73;;
17173;SDS011;8702;48.130;-1.696;2022-10-17T09:57:14;4.97;;;1.52;;
17173;SDS011;8702;48.130;-1.696;2022-10-17T09:59:42;5.80;;;1.53;;
17173;SDS011;8702;48.130;-1.696;2022-10-17T10:02:18;5.55;;;1.67;;
17173;SDS011;8702;48.130;-1.696;2022-10-17T10:04:52;7.18;;;1.80;;
17173;SDS011;8702;48.130;-1.696;2022-10-17T10:07:22;3.83;;;1.38;;
17173;SDS011;8702;48.130;-1.696;2022-10-17T10:09:49;7.13;;;1.70;;
17173;SDS011;8702;48.130;-1.696;2022-10-17T10:12:17;5.32;;;1.67;;
17173;SDS011;8702;48.130;-1.696;2022-10-17T10:14:46;6.37;;;1.67;;
17173;SDS011;8702;48.130;-1.696;2022-10-17T10:17:24;12.60;;;1.88;;
17173;SDS011;8702;48.130;-1.696;2022-10-17T10:19:54;4.83;;;1.60;;
17173;SDS011;8702;48.130;-1.696;2022-10-17T10:22:22;6.68;;;1.73;;
17173;SDS011;8702;48.130;-1.696;2022-10-17T10:27:38;5.88;;;1.63;;
17173;SDS011;8702;48.130;-1.696;2022-10-17T10:30:06;6.82;;;1.60;;
17173;SDS011;8702;48.130;-1.696;2022-10-17T10:32:44;4.83;;;1.77;;
17173;SDS011;8702;48.130;-1.696;2022-10-17T10:35:17;7.53;;;1.80;;
17173;SDS011;8702;48.130;-1.696;2022-10-17T10:37:47;4.30;;;1.50;;
17173;SDS011;8702;48.130;-1.696;2022-10-17T10:40:16;7.28;;;2.22;;
17173;SDS011;8702;48.130;-1.696;2022-10-17T10:42:45;5.70;;;1.87;;
17173;SDS011;8702;48.130;-1.696;2022-10-17T10:45:14;5.78;;;1.65;;
17173;SDS011;8702;48.130;-1.696;2022-10-17T10:47:48;5.20;;;1.70;;
17173;SDS011;8702;48.130;-1.696;2022-10-17T10:50:23;5.28;;;1.77;;
17173;SDS011;8702;48.130;-1.696;2022-10-17T10:53:00;6.73;;;1.70;;
17173;SDS011;8702;48.130;-1.696;2022-10-17T10:55:40;6.82;;;1.65;;
17173;SDS011;8702;48.130;-1.696;2022-10-17T10:58:16;4.07;;;1.27;;
17173;SDS011;8702;48.130;-1.696;2022-10-17T11:00:50;6.03;;;1.70;;
17173;SDS011;8702;48.130;-1.696;2022-10-17T11:03:18;6.38;;;1.70;;
17173;SDS011;8702;48.130;-1.696;2022-10-17T11:05:52;6.47;;;1.70;;
17173;SDS011;8702;48.130;-1.696;2022-10-17T11:08:24;6.78;;;1.80;;
17173;SDS011;8702;48.130;-1.696;2022-10-17T11:10:58;5.45;;;1.80;;
17173;SDS011;8702;48.130;-1.696;2022-10-17T11:13:33;4.85;;;1.50;;
17173;SDS011;8702;48.130;-1.696;2022-10-17T11:16:14;4.47;;;1.40;;
17173;SDS011;8702;48.130;-1.696;2022-10-17T11:18:47;3.92;;;1.33;;
17173;SDS011;8702;48.130;-1.696;2022-10-17T11:21:22;5.03;;;1.40;;
17173;SDS011;8702;48.130;-1.696;2022-10-17T11:24:02;7.63;;;1.80;;
17173;SDS011;8702;48.130;-1.696;2022-10-17T11:26:37;4.07;;;1.40;;
17173;SDS011;8702;48.130;-1.696;2022-10-17T11:29:08;4.55;;;1.23;;
17173;SDS011;8702;48.130;-1.696;2022-10-17T11:31:38;5.13;;;1.60;;
17173;SDS011;8702;48.130;-1.696;2022-10-17T11:34:09;5.23;;;1.30;;
17173;SDS011;8702;48.130;-1.696;2022-10-17T11:36:46;7.13;;;1.45;;
17173;SDS011;8702;48.130;-1.696;2022-10-17T11:39:16;4.72;;;1.45;;
17173;SDS011;8702;48.130;-1.696;2022-10-17T11:41:46;5.28;;;1.30;;
17173;SDS011;8702;48.130;-1.696;2022-10-17T11:44:18;5.10;;;1.50;;
17173;SDS011;8702;48.130;-1.696;2022-10-17T11:46:49;3.63;;;1.42;;
17173;SDS011;8702;48.130;-1.696;2022-10-17T11:49:31;3.08;;;1.13;;
17173;SDS011;8702;48.130;-1.696;2022-10-17T11:52:06;4.63;;;1.38;;
17173;SDS011;8702;48.130;-1.696;2022-10-17T11:54:51;5.45;;;1.52;;
17173;SDS011;8702;48.130;-1.696;2022-10-17T11:57:34;5.90;;;1.55;;
17173;SDS011;8702;48.130;-1.696;2022-10-17T12:00:17;4.25;;;1.20;;
17173;SDS011;8702;48.130;-1.696;2022-10-17T12:03:03;6.43;;;1.42;;
17173;SDS011;8702;48.130;-1.696;2022-10-17T12:05:40;4.00;;;1.45;;
17173;SDS011;8702;48.130;-1.696;2022-10-17T12:08:15;3.25;;;1.20;;
17173;SDS011;8702;48.130;-1.696;2022-10-17T12:10:50;3.60;;;1.38;;
17173;SDS011;8702;48.130;-1.696;2022-10-17T12:16:38;7.80;;;1.92;;
17173;SDS011;8702;48.130;-1.696;2022-10-17T12:24:55;4.97;;;1.50;;
17173;SDS011;8702;48.130;-1.696;2022-10-17T12:27:30;4.90;;;1.40;;
17173;SDS011;8702;48.130;-1.696;2022-10-17T12:30:04;3.28;;;1.30;;
17173;SDS011;8702;48.130;-1.696;2022-10-17T12:32:51;6.25;;;1.42;;
17173;SDS011;8702;48.130;-1.696;2022-10-17T12:35:22;5.78;;;1.58;;
17173;SDS011;8702;48.130;-1.696;2022-10-17T12:38:01;4.50;;;1.48;;
17173;SDS011;8702;48.130;-1.696;2022-10-17T12:41:02;4.15;;;1.42;;
17173;SDS011;8702;48.130;-1.696;2022-10-17T12:43:44;4.38;;;1.40;;
17173;SDS011;8702;48.130;-1.696;2022-10-17T12:46:39;5.72;;;1.60;;
17173;SDS011;8702;48.130;-1.696;2022-10-17T12:52:21;5.50;;;1.48;;
17173;SDS011;8702;48.130;-1.696;2022-10-17T12:54:52;6.47;;;1.80;;
17173;SDS011;8702;48.130;-1.696;2022-10-17T12:57:34;5.05;;;1.60;;
17173;SDS011;8702;48.130;-1.696;2022-10-17T13:00:12;6.13;;;1.38;;
17173;SDS011;8702;48.130;-1.696;2022-10-17T13:02:42;4.90;;;1.30;;
17173;SDS011;8702;48.130;-1.696;2022-10-17T13:05:18;3.58;;;1.02;;
17173;SDS011;8702;48.130;-1.696;2022-10-17T13:07:51;2.95;;;1.15;;
17173;SDS011;8702;48.130;-1.696;2022-10-17T13:10:20;4.35;;;1.30;;
17173;SDS011;8702;48.130;-1.696;2022-10-17T13:12:50;3.90;;;1.20;;
17173;SDS011;8702;48.130;-1.696;2022-10-17T13:15:20;7.75;;;1.33;;
17173;SDS011;8702;48.130;-1.696;2022-10-17T13:17:54;4.47;;;1.17;;
17173;SDS011;8702;48.130;-1.696;2022-10-17T13:20:23;4.47;;;1.20;;
17173;SDS011;8702;48.130;-1.696;2022-10-17T13:22:52;4.63;;;1.40;;
17173;SDS011;8702;48.130;-1.696;2022-10-17T13:25:22;4.65;;;1.48;;
17173;SDS011;8702;48.130;-1.696;2022-10-17T13:28:02;3.97;;;1.30;;
17173;SDS011;8702;48.130;-1.696;2022-10-17T13:30:31;4.22;;;1.30;;
17173;SDS011;8702;48.130;-1.696;2022-10-17T13:32:59;4.40;;;1.60;;
17173;SDS011;8702;48.130;-1.696;2022-10-17T13:35:27;5.00;;;1.50;;
17173;SDS011;8702;48.130;-1.696;2022-10-17T13:37:56;3.70;;;1.17;;
17173;SDS011;8702;48.130;-1.696;2022-10-17T13:40:27;8.40;;;1.35;;
17173;SDS011;8702;48.130;-1.696;2022-10-17T13:42:57;5.45;;;1.33;;
17173;SDS011;8702;48.130;-1.696;2022-10-17T13:45:27;5.57;;;1.48;;
17173;SDS011;8702;48.130;-1.696;2022-10-17T13:47:56;3.83;;;1.20;;
17173;SDS011;8702;48.130;-1.696;2022-10-17T13:50:26;3.67;;;1.25;;
17173;SDS011;8702;48.130;-1.696;2022-10-17T13:53:11;2.65;;;1.02;;
17173;SDS011;8702;48.130;-1.696;2022-10-17T13:55:56;5.28;;;1.40;;
17173;SDS011;8702;48.130;-1.696;2022-10-17T13:58:29;4.63;;;1.50;;
17173;SDS011;8702;48.130;-1.696;2022-10-17T14:00:59;4.38;;;1.55;;
17173;SDS011;8702;48.130;-1.696;2022-10-17T14:03:26;3.40;;;1.00;;
17173;SDS011;8702;48.130;-1.696;2022-10-17T14:06:06;4.60;;;1.27;;
17173;SDS011;8702;48.130;-1.696;2022-10-17T14:08:45;5.47;;;1.33;;
17173;SDS011;8702;48.130;-1.696;2022-10-17T14:11:18;5.85;;;1.15;;
17173;SDS011;8702;48.130;-1.696;2022-10-17T14:13:50;3.40;;;1.20;;
17173;SDS011;8702;48.130;-1.696;2022-10-17T14:16:19;7.30;;;1.65;;
17173;SDS011;8702;48.130;-1.696;2022-10-17T14:18:48;6.83;;;1.47;;
17173;SDS011;8702;48.130;-1.696;2022-10-17T14:21:18;4.80;;;1.67;;
17173;SDS011;8702;48.130;-1.696;2022-10-17T14:23:47;4.07;;;1.73;;
17173;SDS011;8702;48.130;-1.696;2022-10-17T14:26:15;4.28;;;1.63;;
17173;SDS011;8702;48.130;-1.696;2022-10-17T14:28:45;4.93;;;1.70;;
17173;SDS011;8702;48.130;-1.696;2022-10-17T14:31:22;6.63;;;1.80;;
17173;SDS011;8702;48.130;-1.696;2022-10-17T14:33:53;8.05;;;1.92;;
17173;SDS011;8702;48.130;-1.696;2022-10-17T14:36:29;9.77;;;2.00;;
17173;SDS011;8702;48.130;-1.696;2022-10-17T14:39:01;6.97;;;2.50;;
17173;SDS011;8702;48.130;-1.696;2022-10-17T14:41:31;6.47;;;3.10;;
17173;SDS011;8702;48.130;-1.696;2022-10-17T14:44:01;7.70;;;2.90;;
17173;SDS011;8702;48.130;-1.696;2022-10-17T14:46:32;9.48;;;3.15;;
17173;SDS011;8702;48.130;-1.696;2022-10-17T14:49:03;8.73;;;4.05;;
17173;SDS011;8702;48.130;-1.696;2022-10-17T14:51:31;8.45;;;3.60;;
17173;SDS011;8702;48.130;-1.696;2022-10-17T14:54:01;7.10;;;3.40;;
17173;SDS011;8702;48.130;-1.696;2022-10-17T14:56:34;6.78;;;3.20;;
17173;SDS011;8702;48.130;-1.696;2022-10-17T14:59:04;7.90;;;3.53;;
17173;SDS011;8702;48.130;-1.696;2022-10-17T15:01:33;5.95;;;2.60;;
17173;SDS011;8702;48.130;-1.696;2022-10-17T15:04:00;5.50;;;2.60;;
17173;SDS011;8702;48.130;-1.696;2022-10-17T15:06:28;5.97;;;2.90;;
17173;SDS011;8702;48.130;-1.696;2022-10-17T15:08:55;5.15;;;2.63;;
17173;SDS011;8702;48.130;-1.696;2022-10-17T15:11:23;5.45;;;2.35;;
17173;SDS011;8702;48.130;-1.696;2022-10-17T15:13:50;5.63;;;2.40;;
17173;SDS011;8702;48.130;-1.696;2022-10-17T15:16:19;4.95;;;2.10;;
17173;SDS011;8702;48.130;-1.696;2022-10-17T15:18:49;6.18;;;2.40;;
17173;SDS011;8702;48.130;-1.696;2022-10-17T15:21:18;7.60;;;2.90;;
17173;SDS011;8702;48.130;-1.696;2022-10-17T15:23:47;6.40;;;2.40;;
17173;SDS011;8702;48.130;-1.696;2022-10-17T15:26:15;6.15;;;1.92;;
17173;SDS011;8702;48.130;-1.696;2022-10-17T15:28:44;6.55;;;2.05;;
17173;SDS011;8702;48.130;-1.696;2022-10-17T15:31:12;4.00;;;1.88;;
17173;SDS011;8702;48.130;-1.696;2022-10-17T15:33:41;5.78;;;2.22;;